Airfield :
LOGIN :

Register | Disclaimer

   EN    FR    IT 

 










Legend :    VFR   Marginal VFR   IFR   Intensive IFR   Very Intensive IFR
Visi :
Ceiling :
>= 8 km
>= 3000ft
5 to 8 km
1000 to 3000 ft
1500m to 5 km
500 to 1000 ft
800 to 1500m
200 to 500 ft
< 800m
< 200 ft
Symbols :   Thunderstorms  Fog  Heavy snow  Heavy precipitations  Wind > 20 kt
SIGMETs :     Misc.  Thunderstorms  Icing  Turbulence  Mountain Waves  Volcanic Ashes






- Airport Elevation : 102 ft
- IATA code : EXT


EGTE - Exeter

CURRENT METAR :
  • 130950Z VRB02KT 9999 FEW024 18/12 Q1014

EXPIRED METARs :
  • 130920Z VRB03KT 9999 SCT020TCU 18/13 Q1015
  • 130850Z VRB02KT 9999 SCT015TCU 17/12 Q1015
  • 130820Z VRB02KT 9999 FEW020TCU 17/14 Q1015
  • 130750Z VRB03KT 9999 SCT030TCU 15/14 Q1015
  • 130720Z VRB01KT 9999 FEW006 SCT040 13/13 Q1015
  • 130650Z VRB02KT 9999 FEW010 SCT040 13/13 Q1015
  • 130620Z 36001KT 9999 FEW010 SCT040 13/12 Q1015
  • 130550Z 03002KT 9999 FEW010 SCT040 13/12 Q1015

TAF TAF EGTE
Valid from the 13 at 09:00 until the 13 at 18:00 UTC


130757Z 1309/1318 33005KT 9999 SCT040
PROB40
TEMPO 1310/1318 6000 SHRA
PROB30 1312/1318 18010KT



MET'MAP, your aeronautical weather chart ! - Copyright ORBIFLY December 2007 - Disclaimer

ORBIFLY MET'MAP TEAM :

Programming & Development : Alexandra Zaïnal
Original concept : Baudouin d'Aumeries
Technical & hardware support : Manuel Goepfert
Assistance : Marc-Olivier Méhu




SOURCES & CREDITS :

   NOAA